< < Back
Terminal Aerodrome Forecast


Current Version              Previous Versions:   1  2  3  4  5  6  7  8  9  

Terminal Aerodrome Forecast

591
FTUS44 KBMX 012300
TAFANB
TAF
KANB 012325Z 0200/0224 09003KT P6SM SCT040 BKN150
     FM020600 09003KT P6SM BKN100
      TEMPO 0210/0214 BKN012
     FM021400 05004KT P6SM VCSH OVC015
     FM021800 03004KT P6SM VCTS BKN035CB=



Latest METAR

228
SAUS70 KWBC 020800 RRA
MTRANB
METAR KANB 020753Z AUTO 08003KT 10SM CLR 22/20 A3005 RMK AO2 SLP166
T02220200


USA.gov is the U.S. government's official web portal to all federal, state and local government web resources and services.